sensor_id;sensor_type;location;lat;lon;timestamp;pressure;altitude;pressure_sealevel;temperature;humidity
56558;BME280;43358;50.356;12.456;2023-03-13T00:00:08;94914;;;1.4;98.8
56558;BME280;43358;50.356;12.456;2023-03-13T00:01:10;94913;;;1.4;98.8
56558;BME280;43358;50.356;12.456;2023-03-13T00:02:11;94914;;;1.4;98.8
56558;BME280;43358;50.356;12.456;2023-03-13T00:03:13;94911;;;1.4;98.8
56558;BME280;43358;50.356;12.456;2023-03-13T00:04:15;94909;;;1.4;98.8
56558;BME280;43358;50.356;12.456;2023-03-13T00:05:17;94910;;;1.4;98.8
56558;BME280;43358;50.356;12.456;2023-03-13T00:06:19;94912;;;1.4;98.8
56558;BME280;43358;50.356;12.456;2023-03-13T00:07:21;94917;;;1.4;98.8
56558;BME280;43358;50.356;12.456;2023-03-13T00:08:24;94913;;;1.4;98.8
56558;BME280;43358;50.356;12.456;2023-03-13T00:09:26;94915;;;1.4;98.8
56558;BME280;43358;50.356;12.456;2023-03-13T00:10:28;94918;;;1.4;98.8
56558;BME280;43358;50.356;12.456;2023-03-13T00:11:30;94910;;;1.5;98.8
56558;BME280;43358;50.356;12.456;2023-03-13T00:12:32;94905;;;1.5;98.8
56558;BME280;43358;50.356;12.456;2023-03-13T00:13:34;94907;;;1.5;98.8
56558;BME280;43358;50.356;12.456;2023-03-13T00:14:36;94909;;;1.6;98.8
56558;BME280;43358;50.356;12.456;2023-03-13T00:15:38;94906;;;1.6;98.8
56558;BME280;43358;50.356;12.456;2023-03-13T00:16:40;94901;;;1.6;98.8
56558;BME280;43358;50.356;12.456;2023-03-13T00:17:42;94903;;;1.6;98.8
56558;BME280;43358;50.356;12.456;2023-03-13T00:18:44;94902;;;1.6;98.8
56558;BME280;43358;50.356;12.456;2023-03-13T00:19:46;94905;;;1.6;98.8
56558;BME280;43358;50.356;12.456;2023-03-13T00:20:48;94905;;;1.7;98.8
56558;BME280;43358;50.356;12.456;2023-03-13T00:21:50;94905;;;1.7;98.8
56558;BME280;43358;50.356;12.456;2023-03-13T00:22:53;94906;;;1.7;98.8
56558;BME280;43358;50.356;12.456;2023-03-13T00:23:56;94898;;;1.6;98.8
56558;BME280;43358;50.356;12.456;2023-03-13T00:24:57;94900;;;1.6;98.8
56558;BME280;43358;50.356;12.456;2023-03-13T00:26:01;94902;;;1.5;98.8
56558;BME280;43358;50.356;12.456;2023-03-13T00:27:03;94904;;;1.5;98.8
56558;BME280;43358;50.356;12.456;2023-03-13T00:28:05;94902;;;1.5;98.8
56558;BME280;43358;50.356;12.456;2023-03-13T00:29:07;94902;;;1.5;98.8
56558;BME280;43358;50.356;12.456;2023-03-13T00:30:09;94904;;;1.5;98.8
56558;BME280;43358;50.356;12.456;2023-03-13T00:31:12;94896;;;1.5;98.8
56558;BME280;43358;50.356;12.456;2023-03-13T00:32:13;94899;;;1.5;98.8
56558;BME280;43358;50.356;12.456;2023-03-13T00:33:15;94901;;;1.5;98.8
56558;BME280;43358;50.356;12.456;2023-03-13T00:34:17;94893;;;1.6;98.8
56558;BME280;43358;50.356;12.456;2023-03-13T00:35:19;94891;;;1.6;98.8
56558;BME280;43358;50.356;12.456;2023-03-13T00:36:22;94891;;;1.5;98.8
56558;BME280;43358;50.356;12.456;2023-03-13T00:37:23;94886;;;1.5;98.8
56558;BME280;43358;50.356;12.456;2023-03-13T00:38:26;94888;;;1.5;98.8
56558;BME280;43358;50.356;12.456;2023-03-13T00:39:27;94883;;;1.5;98.8
56558;BME280;43358;50.356;12.456;2023-03-13T00:40:30;94885;;;1.5;98.8
56558;BME280;43358;50.356;12.456;2023-03-13T00:41:32;94887;;;1.5;98.8
56558;BME280;43358;50.356;12.456;2023-03-13T00:42:34;94883;;;1.5;98.8
56558;BME280;43358;50.356;12.456;2023-03-13T00:43:36;94880;;;1.5;98.8
56558;BME280;43358;50.356;12.456;2023-03-13T00:44:38;94881;;;1.5;98.8
56558;BME280;43358;50.356;12.456;2023-03-13T00:45:40;94885;;;1.5;98.8
56558;BME280;43358;50.356;12.456;2023-03-13T00:46:43;94885;;;1.5;98.8
56558;BME280;43358;50.356;12.456;2023-03-13T00:47:45;94884;;;1.4;98.8
56558;BME280;43358;50.356;12.456;2023-03-13T00:48:47;94886;;;1.4;98.8
56558;BME280;43358;50.356;12.456;2023-03-13T00:49:50;94884;;;1.3;98.8
56558;BME280;43358;50.356;12.456;2023-03-13T00:50:52;94879;;;1.3;98.8
56558;BME280;43358;50.356;12.456;2023-03-13T00:51:54;94877;;;1.3;98.8
56558;BME280;43358;50.356;12.456;2023-03-13T00:54:12;94881;;;1.3;98.8
56558;BME280;43358;50.356;12.456;2023-03-13T00:56:05;94878;;;1.3;98.8
56558;BME280;43358;50.356;12.456;2023-03-13T00:57:06;94876;;;1.3;98.8
56558;BME280;43358;50.356;12.456;2023-03-13T00:58:15;94873;;;1.4;98.8
56558;BME280;43358;50.356;12.456;2023-03-13T00:59:15;94874;;;1.3;98.8
56558;BME280;43358;50.356;12.456;2023-03-13T01:00:15;94873;;;1.3;98.8
56558;BME280;43358;50.356;12.456;2023-03-13T01:01:16;94875;;;1.3;98.8
56558;BME280;43358;50.356;12.456;2023-03-13T01:02:16;94871;;;1.3;98.8
56558;BME280;43358;50.356;12.456;2023-03-13T01:03:18;94870;;;1.3;98.8
56558;BME280;43358;50.356;12.456;2023-03-13T01:04:20;94879;;;1.3;98.8
56558;BME280;43358;50.356;12.456;2023-03-13T01:05:22;94877;;;1.4;98.8
56558;BME280;43358;50.356;12.456;2023-03-13T01:06:25;94874;;;1.4;98.8
56558;BME280;43358;50.356;12.456;2023-03-13T01:07:27;94875;;;1.4;98.8
56558;BME280;43358;50.356;12.456;2023-03-13T01:08:28;94872;;;1.4;98.8
56558;BME280;43358;50.356;12.456;2023-03-13T01:09:30;94874;;;1.4;98.8
56558;BME280;43358;50.356;12.456;2023-03-13T01:10:33;94871;;;1.4;98.8
56558;BME280;43358;50.356;12.456;2023-03-13T01:11:36;94870;;;1.4;98.8
56558;BME280;43358;50.356;12.456;2023-03-13T01:12:37;94870;;;1.3;98.8
56558;BME280;43358;50.356;12.456;2023-03-13T01:13:39;94869;;;1.4;98.8
56558;BME280;43358;50.356;12.456;2023-03-13T01:14:41;94876;;;1.4;98.8
56558;BME280;43358;50.356;12.456;2023-03-13T01:15:43;94871;;;1.5;98.8
56558;BME280;43358;50.356;12.456;2023-03-13T01:16:46;94866;;;1.5;98.8
56558;BME280;43358;50.356;12.456;2023-03-13T01:17:48;94869;;;1.5;98.8
56558;BME280;43358;50.356;12.456;2023-03-13T01:18:51;94861;;;1.5;98.8
56558;BME280;43358;50.356;12.456;2023-03-13T01:19:54;94867;;;1.5;98.8
56558;BME280;43358;50.356;12.456;2023-03-13T01:20:54;94865;;;1.5;98.8
56558;BME280;43358;50.356;12.456;2023-03-13T01:21:56;94863;;;1.5;98.8
56558;BME280;43358;50.356;12.456;2023-03-13T01:22:58;94866;;;1.5;98.8
56558;BME280;43358;50.356;12.456;2023-03-13T01:24:00;94865;;;1.5;98.8
56558;BME280;43358;50.356;12.456;2023-03-13T01:25:04;94867;;;1.5;98.8
56558;BME280;43358;50.356;12.456;2023-03-13T01:26:07;94866;;;1.5;98.8
56558;BME280;43358;50.356;12.456;2023-03-13T01:27:08;94863;;;1.4;98.8
56558;BME280;43358;50.356;12.456;2023-03-13T01:28:10;94861;;;1.5;98.8
56558;BME280;43358;50.356;12.456;2023-03-13T01:29:12;94863;;;1.5;98.8
56558;BME280;43358;50.356;12.456;2023-03-13T01:30:14;94859;;;1.5;98.8
56558;BME280;43358;50.356;12.456;2023-03-13T01:31:17;94859;;;1.5;98.8
56558;BME280;43358;50.356;12.456;2023-03-13T01:32:18;94856;;;1.5;98.8
56558;BME280;43358;50.356;12.456;2023-03-13T01:33:20;94860;;;1.5;98.8
56558;BME280;43358;50.356;12.456;2023-03-13T01:34:22;94853;;;1.5;98.8
56558;BME280;43358;50.356;12.456;2023-03-13T01:35:24;94851;;;1.5;98.8
56558;BME280;43358;50.356;12.456;2023-03-13T01:36:26;94850;;;1.5;98.8
56558;BME280;43358;50.356;12.456;2023-03-13T01:37:28;94851;;;1.5;98.8
56558;BME280;43358;50.356;12.456;2023-03-13T01:38:30;94852;;;1.5;98.8
56558;BME280;43358;50.356;12.456;2023-03-13T01:39:32;94848;;;1.5;98.8
56558;BME280;43358;50.356;12.456;2023-03-13T01:40:38;94850;;;1.5;98.8
56558;BME280;43358;50.356;12.456;2023-03-13T01:41:36;94848;;;1.5;98.8
56558;BME280;43358;50.356;12.456;2023-03-13T01:42:54;94845;;;1.4;98.8
56558;BME280;43358;50.356;12.456;2023-03-13T01:43:40;94840;;;1.4;98.8
56558;BME280;43358;50.356;12.456;2023-03-13T01:44:48;94841;;;1.4;98.8
56558;BME280;43358;50.356;12.456;2023-03-13T01:45:51;94837;;;1.3;98.8
56558;BME280;43358;50.356;12.456;2023-03-13T01:46:47;94833;;;1.3;98.8
56558;BME280;43358;50.356;12.456;2023-03-13T01:47:49;94835;;;1.3;98.8
56558;BME280;43358;50.356;12.456;2023-03-13T01:48:53;94834;;;1.3;98.8
56558;BME280;43358;50.356;12.456;2023-03-13T01:49:54;94837;;;1.3;98.8
56558;BME280;43358;50.356;12.456;2023-03-13T01:50:57;94830;;;1.3;98.8
56558;BME280;43358;50.356;12.456;2023-03-13T01:51:59;94834;;;1.3;98.8
56558;BME280;43358;50.356;12.456;2023-03-13T01:53:00;94835;;;1.3;98.8
56558;BME280;43358;50.356;12.456;2023-03-13T01:54:05;94829;;;1.4;98.8
56558;BME280;43358;50.356;12.456;2023-03-13T01:55:06;94826;;;1.3;98.8
56558;BME280;43358;50.356;12.456;2023-03-13T01:56:08;94826;;;1.3;98.8
56558;BME280;43358;50.356;12.456;2023-03-13T01:57:10;94827;;;1.3;98.8
56558;BME280;43358;50.356;12.456;2023-03-13T01:58:11;94830;;;1.3;98.8
56558;BME280;43358;50.356;12.456;2023-03-13T01:59:14;94828;;;1.4;98.8
56558;BME280;43358;50.356;12.456;2023-03-13T02:00:17;94826;;;1.3;98.8
56558;BME280;43358;50.356;12.456;2023-03-13T02:01:18;94828;;;1.3;98.8
56558;BME280;43358;50.356;12.456;2023-03-13T02:02:21;94838;;;1.3;98.8
56558;BME280;43358;50.356;12.456;2023-03-13T02:03:23;94834;;;1.4;98.8
56558;BME280;43358;50.356;12.456;2023-03-13T02:04:25;94834;;;1.4;98.8
56558;BME280;43358;50.356;12.456;2023-03-13T02:05:27;94830;;;1.4;98.8
56558;BME280;43358;50.356;12.456;2023-03-13T02:06:30;94836;;;1.4;98.8
56558;BME280;43358;50.356;12.456;2023-03-13T02:07:32;94837;;;1.4;98.8
56558;BME280;43358;50.356;12.456;2023-03-13T02:08:34;94835;;;1.4;98.8
56558;BME280;43358;50.356;12.456;2023-03-13T02:09:35;94834;;;1.4;98.8
56558;BME280;43358;50.356;12.456;2023-03-13T02:10:38;94831;;;1.4;98.8
56558;BME280;43358;50.356;12.456;2023-03-13T02:11:43;94831;;;1.4;98.8
56558;BME280;43358;50.356;12.456;2023-03-13T02:12:42;94829;;;1.4;98.8
56558;BME280;43358;50.356;12.456;2023-03-13T02:13:44;94833;;;1.4;98.8
56558;BME280;43358;50.356;12.456;2023-03-13T02:14:47;94832;;;1.4;98.8
56558;BME280;43358;50.356;12.456;2023-03-13T02:15:49;94830;;;1.3;98.8
56558;BME280;43358;50.356;12.456;2023-03-13T02:16:53;94830;;;1.4;98.8
56558;BME280;43358;50.356;12.456;2023-03-13T02:17:54;94830;;;1.4;98.8
56558;BME280;43358;50.356;12.456;2023-03-13T02:18:56;94824;;;1.4;98.8
56558;BME280;43358;50.356;12.456;2023-03-13T02:19:58;94825;;;1.4;98.8
56558;BME280;43358;50.356;12.456;2023-03-13T02:21:01;94828;;;1.3;98.8
56558;BME280;43358;50.356;12.456;2023-03-13T02:22:05;94830;;;1.3;98.8
56558;BME280;43358;50.356;12.456;2023-03-13T02:23:06;94832;;;1.3;98.8
56558;BME280;43358;50.356;12.456;2023-03-13T02:24:09;94832;;;1.4;98.8
56558;BME280;43358;50.356;12.456;2023-03-13T02:25:11;94831;;;1.4;98.8
56558;BME280;43358;50.356;12.456;2023-03-13T02:26:11;94832;;;1.4;98.8
56558;BME280;43358;50.356;12.456;2023-03-13T02:27:13;94827;;;1.4;98.8
56558;BME280;43358;50.356;12.456;2023-03-13T02:28:16;94826;;;1.4;98.8
56558;BME280;43358;50.356;12.456;2023-03-13T02:29:17;94826;;;1.4;98.8
56558;BME280;43358;50.356;12.456;2023-03-13T02:30:19;94820;;;1.4;98.8
56558;BME280;43358;50.356;12.456;2023-03-13T02:31:21;94822;;;1.4;98.8
56558;BME280;43358;50.356;12.456;2023-03-13T02:32:24;94827;;;1.4;98.8
56558;BME280;43358;50.356;12.456;2023-03-13T02:33:26;94827;;;1.4;98.8
56558;BME280;43358;50.356;12.456;2023-03-13T02:34:28;94827;;;1.3;98.8
56558;BME280;43358;50.356;12.456;2023-03-13T02:35:29;94828;;;1.3;98.8
56558;BME280;43358;50.356;12.456;2023-03-13T02:36:32;94829;;;1.3;98.8
56558;BME280;43358;50.356;12.456;2023-03-13T02:37:34;94825;;;1.3;98.8
56558;BME280;43358;50.356;12.456;2023-03-13T02:38:38;94824;;;1.2;98.8
56558;BME280;43358;50.356;12.456;2023-03-13T02:39:39;94826;;;1.2;98.8
56558;BME280;43358;50.356;12.456;2023-03-13T02:40:41;94827;;;1.2;98.8
56558;BME280;43358;50.356;12.456;2023-03-13T02:41:42;94824;;;1.2;98.8
56558;BME280;43358;50.356;12.456;2023-03-13T02:42:44;94821;;;1.2;98.8
56558;BME280;43358;50.356;12.456;2023-03-13T02:43:46;94817;;;1.2;98.8
56558;BME280;43358;50.356;12.456;2023-03-13T02:44:48;94811;;;1.2;98.8
56558;BME280;43358;50.356;12.456;2023-03-13T02:46:07;94813;;;1.1;98.8
56558;BME280;43358;50.356;12.456;2023-03-13T02:46:52;94810;;;1.1;98.8
56558;BME280;43358;50.356;12.456;2023-03-13T02:47:54;94803;;;1.2;98.8
56558;BME280;43358;50.356;12.456;2023-03-13T02:48:56;94806;;;1.3;98.8
56558;BME280;43358;50.356;12.456;2023-03-13T02:49:58;94803;;;1.3;98.8
56558;BME280;43358;50.356;12.456;2023-03-13T02:51:01;94803;;;1.4;98.8
56558;BME280;43358;50.356;12.456;2023-03-13T02:52:06;94801;;;1.3;98.8
56558;BME280;43358;50.356;12.456;2023-03-13T02:53:06;94799;;;1.3;98.8
56558;BME280;43358;50.356;12.456;2023-03-13T02:54:09;94798;;;1.3;98.8
56558;BME280;43358;50.356;12.456;2023-03-13T02:55:11;94795;;;1.3;98.8
56558;BME280;43358;50.356;12.456;2023-03-13T02:56:13;94792;;;1.2;98.8
56558;BME280;43358;50.356;12.456;2023-03-13T02:57:14;94792;;;1.2;98.8
56558;BME280;43358;50.356;12.456;2023-03-13T02:58:16;94790;;;1.3;98.8
56558;BME280;43358;50.356;12.456;2023-03-13T02:59:18;94785;;;1.2;98.8
56558;BME280;43358;50.356;12.456;2023-03-13T03:00:21;94784;;;1.2;98.8
56558;BME280;43358;50.356;12.456;2023-03-13T03:01:23;94780;;;1.2;98.8
56558;BME280;43358;50.356;12.456;2023-03-13T03:02:25;94780;;;1.2;98.8
56558;BME280;43358;50.356;12.456;2023-03-13T03:03:27;94780;;;1.2;98.8
56558;BME280;43358;50.356;12.456;2023-03-13T03:04:29;94776;;;1.2;98.8
56558;BME280;43358;50.356;12.456;2023-03-13T03:05:31;94777;;;1.2;98.8
56558;BME280;43358;50.356;12.456;2023-03-13T03:06:33;94776;;;1.2;98.8
56558;BME280;43358;50.356;12.456;2023-03-13T03:07:35;94775;;;1.2;98.8
56558;BME280;43358;50.356;12.456;2023-03-13T03:08:37;94780;;;1.2;98.8
56558;BME280;43358;50.356;12.456;2023-03-13T03:09:39;94782;;;1.2;98.8
56558;BME280;43358;50.356;12.456;2023-03-13T03:10:41;94781;;;1.2;98.8
56558;BME280;43358;50.356;12.456;2023-03-13T03:12:45;94776;;;1.4;98.8
56558;BME280;43358;50.356;12.456;2023-03-13T03:13:47;94778;;;1.3;98.8
56558;BME280;43358;50.356;12.456;2023-03-13T03:14:49;94776;;;1.3;98.8
56558;BME280;43358;50.356;12.456;2023-03-13T03:15:51;94776;;;1.3;98.8
56558;BME280;43358;50.356;12.456;2023-03-13T03:16:53;94777;;;1.2;98.8
56558;BME280;43358;50.356;12.456;2023-03-13T03:17:55;94775;;;1.2;98.8
56558;BME280;43358;50.356;12.456;2023-03-13T03:18:57;94780;;;1.2;98.8
56558;BME280;43358;50.356;12.456;2023-03-13T03:20:00;94781;;;1.2;98.8
56558;BME280;43358;50.356;12.456;2023-03-13T03:21:04;94778;;;1.2;98.8
56558;BME280;43358;50.356;12.456;2023-03-13T03:22:05;94785;;;1.1;98.8
56558;BME280;43358;50.356;12.456;2023-03-13T03:23:08;94784;;;1.1;98.8
56558;BME280;43358;50.356;12.456;2023-03-13T03:24:10;94786;;;1.1;98.8
56558;BME280;43358;50.356;12.456;2023-03-13T03:25:12;94777;;;1.1;98.8
56558;BME280;43358;50.356;12.456;2023-03-13T03:26:14;94778;;;1.2;98.8
56558;BME280;43358;50.356;12.456;2023-03-13T03:27:16;94785;;;1.1;98.8
56558;BME280;43358;50.356;12.456;2023-03-13T03:28:18;94784;;;1.1;98.8
56558;BME280;43358;50.356;12.456;2023-03-13T03:29:20;94789;;;1.2;98.8
56558;BME280;43358;50.356;12.456;2023-03-13T03:30:22;94785;;;1.2;98.8
56558;BME280;43358;50.356;12.456;2023-03-13T03:31:24;94776;;;1.2;98.8
56558;BME280;43358;50.356;12.456;2023-03-13T03:32:26;94778;;;1.2;98.8
56558;BME280;43358;50.356;12.456;2023-03-13T03:33:28;94779;;;1.2;98.8
56558;BME280;43358;50.356;12.456;2023-03-13T03:34:30;94782;;;1.1;98.8
56558;BME280;43358;50.356;12.456;2023-03-13T03:35:32;94785;;;1.1;98.8
56558;BME280;43358;50.356;12.456;2023-03-13T03:36:34;94785;;;1.1;98.8
56558;BME280;43358;50.356;12.456;2023-03-13T03:37:36;94787;;;1.2;98.8
56558;BME280;43358;50.356;12.456;2023-03-13T03:38:38;94783;;;1.2;98.8
56558;BME280;43358;50.356;12.456;2023-03-13T03:39:40;94781;;;1.3;98.8
56558;BME280;43358;50.356;12.456;2023-03-13T03:40:42;94776;;;1.4;98.8
56558;BME280;43358;50.356;12.456;2023-03-13T03:41:44;94772;;;1.3;98.8
56558;BME280;43358;50.356;12.456;2023-03-13T03:42:46;94768;;;1.3;98.8
56558;BME280;43358;50.356;12.456;2023-03-13T03:43:49;94775;;;1.3;98.8
56558;BME280;43358;50.356;12.456;2023-03-13T03:44:51;94775;;;1.3;98.8
56558;BME280;43358;50.356;12.456;2023-03-13T03:45:53;94778;;;1.3;98.8
56558;BME280;43358;50.356;12.456;2023-03-13T03:46:55;94778;;;1.3;98.8
56558;BME280;43358;50.356;12.456;2023-03-13T03:47:57;94780;;;1.4;98.8
56558;BME280;43358;50.356;12.456;2023-03-13T03:49:00;94770;;;1.4;98.8
56558;BME280;43358;50.356;12.456;2023-03-13T03:50:03;94761;;;1.3;98.8
56558;BME280;43358;50.356;12.456;2023-03-13T03:51:05;94764;;;1.3;98.8
56558;BME280;43358;50.356;12.456;2023-03-13T03:52:07;94762;;;1.3;98.8
56558;BME280;43358;50.356;12.456;2023-03-13T03:53:09;94765;;;1.2;98.8
56558;BME280;43358;50.356;12.456;2023-03-13T03:54:11;94766;;;1.2;98.8
56558;BME280;43358;50.356;12.456;2023-03-13T03:55:13;94765;;;1.2;98.8
56558;BME280;43358;50.356;12.456;2023-03-13T03:56:15;94761;;;1.3;98.8
56558;BME280;43358;50.356;12.456;2023-03-13T03:57:17;94753;;;1.3;98.8
56558;BME280;43358;50.356;12.456;2023-03-13T03:58:20;94761;;;1.3;98.8
56558;BME280;43358;50.356;12.456;2023-03-13T03:59:22;94762;;;1.2;98.8
56558;BME280;43358;50.356;12.456;2023-03-13T04:00:24;94763;;;1.2;98.8
56558;BME280;43358;50.356;12.456;2023-03-13T04:01:26;94760;;;1.3;98.8
56558;BME280;43358;50.356;12.456;2023-03-13T04:02:28;94760;;;1.3;98.8
56558;BME280;43358;50.356;12.456;2023-03-13T04:03:30;94758;;;1.3;98.8
56558;BME280;43358;50.356;12.456;2023-03-13T04:04:32;94756;;;1.2;98.8
56558;BME280;43358;50.356;12.456;2023-03-13T04:05:34;94751;;;1.2;98.8
56558;BME280;43358;50.356;12.456;2023-03-13T04:06:36;94754;;;1.2;98.8
56558;BME280;43358;50.356;12.456;2023-03-13T04:07:38;94749;;;1.2;98.8
56558;BME280;43358;50.356;12.456;2023-03-13T04:08:40;94745;;;1.2;98.8
56558;BME280;43358;50.356;12.456;2023-03-13T04:09:42;94743;;;1.1;98.8
56558;BME280;43358;50.356;12.456;2023-03-13T04:10:44;94748;;;1.1;98.8
56558;BME280;43358;50.356;12.456;2023-03-13T04:11:47;94751;;;1.1;98.8
56558;BME280;43358;50.356;12.456;2023-03-13T04:12:50;94749;;;1.1;98.8
56558;BME280;43358;50.356;12.456;2023-03-13T04:13:52;94748;;;1.2;98.8
56558;BME280;43358;50.356;12.456;2023-03-13T04:14:54;94748;;;1.2;98.8
56558;BME280;43358;50.356;12.456;2023-03-13T04:15:56;94743;;;1.2;98.8
56558;BME280;43358;50.356;12.456;2023-03-13T04:16:58;94739;;;1.2;98.8
56558;BME280;43358;50.356;12.456;2023-03-13T04:18:00;94741;;;1.2;98.8
56558;BME280;43358;50.356;12.456;2023-03-13T04:19:02;94732;;;1.1;98.8
56558;BME280;43358;50.356;12.456;2023-03-13T04:20:04;94732;;;1.2;98.8
56558;BME280;43358;50.356;12.456;2023-03-13T04:21:06;94731;;;1.3;98.8
56558;BME280;43358;50.356;12.456;2023-03-13T04:22:08;94731;;;1.3;98.8
56558;BME280;43358;50.356;12.456;2023-03-13T04:23:24;94730;;;1.3;98.8
56558;BME280;43358;50.356;12.456;2023-03-13T04:24:12;94733;;;1.4;98.8
56558;BME280;43358;50.356;12.456;2023-03-13T04:25:14;94730;;;1.3;98.8
56558;BME280;43358;50.356;12.456;2023-03-13T04:26:16;94727;;;1.3;98.8
56558;BME280;43358;50.356;12.456;2023-03-13T04:27:18;94721;;;1.2;98.8
56558;BME280;43358;50.356;12.456;2023-03-13T04:28:20;94722;;;1.2;98.8
56558;BME280;43358;50.356;12.456;2023-03-13T04:29:23;94717;;;1.2;98.8
56558;BME280;43358;50.356;12.456;2023-03-13T04:30:24;94709;;;1.2;98.8
56558;BME280;43358;50.356;12.456;2023-03-13T04:31:26;94714;;;1.2;98.8
56558;BME280;43358;50.356;12.456;2023-03-13T04:32:28;94715;;;1.2;98.8
56558;BME280;43358;50.356;12.456;2023-03-13T04:33:30;94714;;;1.2;98.8
56558;BME280;43358;50.356;12.456;2023-03-13T04:34:32;94714;;;1.2;98.8
56558;BME280;43358;50.356;12.456;2023-03-13T04:35:34;94715;;;1.2;98.8
56558;BME280;43358;50.356;12.456;2023-03-13T04:36:36;94712;;;1.2;98.8
56558;BME280;43358;50.356;12.456;2023-03-13T04:37:38;94711;;;1.2;98.8
56558;BME280;43358;50.356;12.456;2023-03-13T04:38:41;94714;;;1.3;98.8
56558;BME280;43358;50.356;12.456;2023-03-13T04:39:43;94718;;;1.3;98.8
56558;BME280;43358;50.356;12.456;2023-03-13T04:40:45;94717;;;1.3;98.8
56558;BME280;43358;50.356;12.456;2023-03-13T04:41:47;94715;;;1.3;98.8
56558;BME280;43358;50.356;12.456;2023-03-13T04:42:49;94711;;;1.3;98.8
56558;BME280;43358;50.356;12.456;2023-03-13T04:43:51;94711;;;1.3;98.8
56558;BME280;43358;50.356;12.456;2023-03-13T04:44:53;94708;;;1.3;98.8
56558;BME280;43358;50.356;12.456;2023-03-13T04:45:55;94714;;;1.3;98.8
56558;BME280;43358;50.356;12.456;2023-03-13T04:46:57;94708;;;1.3;98.8
56558;BME280;43358;50.356;12.456;2023-03-13T04:48:00;94700;;;1.3;98.8
56558;BME280;43358;50.356;12.456;2023-03-13T04:49:04;94699;;;1.3;98.8
56558;BME280;43358;50.356;12.456;2023-03-13T04:50:08;94694;;;1.3;98.8
56558;BME280;43358;50.356;12.456;2023-03-13T04:51:09;94698;;;1.2;98.8
56558;BME280;43358;50.356;12.456;2023-03-13T04:52:11;94690;;;1.2;98.8
56558;BME280;43358;50.356;12.456;2023-03-13T04:53:13;94690;;;1.2;98.8
56558;BME280;43358;50.356;12.456;2023-03-13T04:54:15;94689;;;1.2;98.8
56558;BME280;43358;50.356;12.456;2023-03-13T04:55:17;94680;;;1.4;98.8
56558;BME280;43358;50.356;12.456;2023-03-13T04:56:21;94677;;;1.4;98.8
56558;BME280;43358;50.356;12.456;2023-03-13T04:57:21;94677;;;1.4;98.8
56558;BME280;43358;50.356;12.456;2023-03-13T04:58:23;94674;;;1.4;98.8
56558;BME280;43358;50.356;12.456;2023-03-13T04:59:26;94674;;;1.4;98.8
56558;BME280;43358;50.356;12.456;2023-03-13T05:00:28;94673;;;1.4;98.8
56558;BME280;43358;50.356;12.456;2023-03-13T05:01:30;94667;;;1.4;98.8
56558;BME280;43358;50.356;12.456;2023-03-13T05:02:32;94664;;;1.4;98.8
56558;BME280;43358;50.356;12.456;2023-03-13T05:03:34;94663;;;1.5;98.8
56558;BME280;43358;50.356;12.456;2023-03-13T05:04:36;94660;;;1.5;98.8
56558;BME280;43358;50.356;12.456;2023-03-13T05:05:38;94660;;;1.5;98.8
56558;BME280;43358;50.356;12.456;2023-03-13T05:06:41;94655;;;1.6;98.8
56558;BME280;43358;50.356;12.456;2023-03-13T05:07:43;94655;;;1.5;98.8
56558;BME280;43358;50.356;12.456;2023-03-13T05:08:45;94654;;;1.6;98.8
56558;BME280;43358;50.356;12.456;2023-03-13T05:09:47;94651;;;1.6;98.8
56558;BME280;43358;50.356;12.456;2023-03-13T05:10:49;94651;;;1.6;98.8
56558;BME280;43358;50.356;12.456;2023-03-13T05:11:51;94653;;;1.6;98.8
56558;BME280;43358;50.356;12.456;2023-03-13T05:12:53;94645;;;1.6;98.8
56558;BME280;43358;50.356;12.456;2023-03-13T05:13:55;94649;;;1.5;98.8
56558;BME280;43358;50.356;12.456;2023-03-13T05:14:57;94647;;;1.5;98.8
56558;BME280;43358;50.356;12.456;2023-03-13T05:16:00;94647;;;1.5;98.8
56558;BME280;43358;50.356;12.456;2023-03-13T05:17:03;94646;;;1.5;98.8
56558;BME280;43358;50.356;12.456;2023-03-13T05:18:05;94644;;;1.5;98.8
56558;BME280;43358;50.356;12.456;2023-03-13T05:19:08;94641;;;1.5;98.8
56558;BME280;43358;50.356;12.456;2023-03-13T05:20:11;94643;;;1.5;98.8
56558;BME280;43358;50.356;12.456;2023-03-13T05:21:12;94639;;;1.5;98.8
56558;BME280;43358;50.356;12.456;2023-03-13T05:22:14;94643;;;1.5;98.8
56558;BME280;43358;50.356;12.456;2023-03-13T05:23:16;94639;;;1.5;98.8
56558;BME280;43358;50.356;12.456;2023-03-13T05:24:18;94635;;;1.5;98.8
56558;BME280;43358;50.356;12.456;2023-03-13T05:25:20;94630;;;1.5;98.8
56558;BME280;43358;50.356;12.456;2023-03-13T05:26:22;94627;;;1.5;98.8
56558;BME280;43358;50.356;12.456;2023-03-13T05:27:24;94627;;;1.4;98.8
56558;BME280;43358;50.356;12.456;2023-03-13T05:28:26;94623;;;1.4;98.8
56558;BME280;43358;50.356;12.456;2023-03-13T05:29:28;94625;;;1.4;98.8
56558;BME280;43358;50.356;12.456;2023-03-13T05:30:30;94624;;;1.4;98.8
56558;BME280;43358;50.356;12.456;2023-03-13T05:31:32;94625;;;1.4;98.8
56558;BME280;43358;50.356;12.456;2023-03-13T05:32:34;94625;;;1.4;98.8
56558;BME280;43358;50.356;12.456;2023-03-13T05:33:36;94625;;;1.4;98.8
56558;BME280;43358;50.356;12.456;2023-03-13T05:34:39;94624;;;1.5;98.8
56558;BME280;43358;50.356;12.456;2023-03-13T05:35:41;94618;;;1.5;98.8
56558;BME280;43358;50.356;12.456;2023-03-13T05:36:43;94614;;;1.4;98.8
56558;BME280;43358;50.356;12.456;2023-03-13T05:37:46;94612;;;1.4;98.8
56558;BME280;43358;50.356;12.456;2023-03-13T05:38:48;94614;;;1.4;98.8
56558;BME280;43358;50.356;12.456;2023-03-13T05:39:50;94612;;;1.4;98.8
56558;BME280;43358;50.356;12.456;2023-03-13T05:40:52;94622;;;1.4;98.8
56558;BME280;43358;50.356;12.456;2023-03-13T05:41:54;94618;;;1.4;98.8
56558;BME280;43358;50.356;12.456;2023-03-13T05:42:56;94614;;;1.4;98.8
56558;BME280;43358;50.356;12.456;2023-03-13T05:43:58;94615;;;1.4;98.8
56558;BME280;43358;50.356;12.456;2023-03-13T05:45:00;94614;;;1.4;98.8
56558;BME280;43358;50.356;12.456;2023-03-13T05:46:04;94609;;;1.4;98.8
56558;BME280;43358;50.356;12.456;2023-03-13T05:47:06;94606;;;1.4;98.8
56558;BME280;43358;50.356;12.456;2023-03-13T05:48:08;94609;;;1.4;98.8
56558;BME280;43358;50.356;12.456;2023-03-13T05:49:10;94609;;;1.4;98.8
56558;BME280;43358;50.356;12.456;2023-03-13T05:50:12;94608;;;1.4;98.8
56558;BME280;43358;50.356;12.456;2023-03-13T05:51:14;94609;;;1.3;98.8
56558;BME280;43358;50.356;12.456;2023-03-13T05:52:16;94607;;;1.4;98.8
56558;BME280;43358;50.356;12.456;2023-03-13T05:53:18;94606;;;1.4;98.8
56558;BME280;43358;50.356;12.456;2023-03-13T05:54:20;94603;;;1.4;98.8
56558;BME280;43358;50.356;12.456;2023-03-13T05:55:22;94597;;;1.4;98.8